Time;durP1;ratioP1;P1;durP2;ratioP2;P2;SDS_P1;SDS_P2;PMS_P1;PMS_P2;Temp;Humidity;BMP_temperature;BMP_pressure;BME280_temperature;BME280_humidity;BME280_pressure;Samples;Min_cycle;Max_cycle;Signal;HPM_P1;HPM_P2
2023/10/15 00:01:34;;;;;;;;;;;9.10;99.90;;;;;;8427469;28;19978;-71
2023/10/15 00:05:35;;;;;;;;;;;9.20;99.90;;;;;;8427776;28;19928;-71
2023/10/15 00:09:39;;;;;;;;;;;9.20;99.90;;;;;;8416175;28;19924;-71
2023/10/15 00:13:41;;;;;;;;;;;9.10;99.90;;;;;;8403288;28;19954;-71
2023/10/15 00:17:43;;;;;;;;;;;9.00;99.90;;;;;;8421506;28;19924;-71
2023/10/15 00:21:45;;;;;;;;;;;9.00;99.90;;;;;;8427770;28;19981;-71
2023/10/15 00:25:47;;;;;;;;;;;9.00;99.90;;;;;;8426654;28;19924;-71
2023/10/15 00:29:50;;;;;;;;;;;9.00;99.90;;;;;;8408334;28;19931;-71
2023/10/15 00:33:51;;;;;;;;;;;9.00;99.90;;;;;;8427176;28;19982;-71
2023/10/15 00:41:55;;;;;;;;;;;9.00;99.90;;;;;;8427516;28;19977;-71
2023/10/15 00:45:59;;;;;;;;;;;9.00;99.90;;;;;;8407322;28;19924;-71
2023/10/15 00:50:07;;;;;;;;;;;8.90;99.90;;;;;;8427485;28;19989;-71
2023/10/15 00:54:11;;;;;;;;;;;8.90;99.90;;;;;;8425782;28;20366;-71
2023/10/15 00:58:21;;;;;;;;;;;8.90;99.90;;;;;;8426558;28;19928;-71
2023/10/15 01:02:23;;;;;;;;;;;8.90;99.90;;;;;;8427594;28;19963;-71
2023/10/15 01:06:30;;;;;;;;;;;8.80;99.90;;;;;;8425099;28;19982;-71
2023/10/15 01:10:36;;;;;;;;;;;8.80;99.90;;;;;;8403331;28;19927;-71
2023/10/15 01:14:44;;;;;;;;;;;8.90;99.90;;;;;;8424850;28;19924;-71
2023/10/15 01:18:55;;;;;;;;;;;8.90;99.90;;;;;;8408354;28;19963;-71
2023/10/15 01:22:57;;;;;;;;;;;8.90;99.90;;;;;;8426542;28;19927;-71
2023/10/15 01:27:09;;;;;;;;;;;8.80;99.90;;;;;;8425683;28;19924;-71
2023/10/15 01:31:15;;;;;;;;;;;8.80;99.90;;;;;;8425196;28;19924;-72
2023/10/15 01:35:19;;;;;;;;;;;8.70;99.90;;;;;;8407064;28;19924;-71
2023/10/15 01:39:32;;;;;;;;;;;8.70;99.90;;;;;;8426495;28;19936;-71
2023/10/15 01:43:35;;;;;;;;;;;8.60;99.90;;;;;;8405985;28;19924;-71
2023/10/15 01:47:45;;;;;;;;;;;8.60;99.90;;;;;;8425379;28;19977;-70
2023/10/15 01:51:47;;;;;;;;;;;8.50;99.90;;;;;;8425617;28;19931;-70
2023/10/15 01:55:59;;;;;;;;;;;8.40;99.90;;;;;;8423979;28;19925;-71
2023/10/15 02:04:44;;;;;;;;;;;8.40;99.90;;;;;;8345245;28;19970;-71
2023/10/15 02:08:46;;;;;;;;;;;8.50;99.90;;;;;;8414555;28;19924;-71
2023/10/15 02:12:59;;;;;;;;;;;8.50;99.90;;;;;;8416855;28;20414;-71
2023/10/15 02:17:03;;;;;;;;;;;8.50;99.90;;;;;;8408452;28;19931;-71
2023/10/15 02:21:05;;;;;;;;;;;8.40;99.90;;;;;;8432231;28;19967;-71
2023/10/15 02:25:06;;;;;;;;;;;8.40;99.90;;;;;;8413322;28;19931;-71
2023/10/15 02:29:27;;;;;;;;;;;8.40;99.90;;;;;;8430855;28;19950;-71
2023/10/15 02:33:29;;;;;;;;;;;8.40;99.90;;;;;;8427135;28;19928;-71
2023/10/15 02:37:31;;;;;;;;;;;8.40;99.90;;;;;;8431813;28;20021;-71
2023/10/15 02:41:40;;;;;;;;;;;8.30;99.90;;;;;;8431344;28;19924;-71
2023/10/15 02:45:43;;;;;;;;;;;8.30;99.90;;;;;;8430025;28;19924;-71
2023/10/15 02:49:50;;;;;;;;;;;8.30;99.90;;;;;;8432044;28;20295;-71
2023/10/15 02:53:53;;;;;;;;;;;8.30;99.90;;;;;;8423998;28;19986;-71
2023/10/15 02:58:00;;;;;;;;;;;8.30;99.90;;;;;;8412079;28;19928;-71
2023/10/15 03:02:06;;;;;;;;;;;8.30;99.90;;;;;;8431032;28;19924;-71
2023/10/15 03:06:09;;;;;;;;;;;8.30;99.90;;;;;;8429468;28;19924;-71
2023/10/15 03:10:12;;;;;;;;;;;8.30;99.90;;;;;;8412243;28;19928;-71
2023/10/15 03:14:13;;;;;;;;;;;8.30;99.90;;;;;;8405159;28;19925;-71
2023/10/15 03:18:21;;;;;;;;;;;8.30;99.90;;;;;;8429875;28;19924;-71
2023/10/15 03:22:30;;;;;;;;;;;8.30;99.90;;;;;;8430393;28;19974;-71
2023/10/15 03:26:33;;;;;;;;;;;8.20;99.90;;;;;;8428647;28;20386;-71
2023/10/15 03:30:36;;;;;;;;;;;8.20;99.90;;;;;;8410640;28;19924;-71
2023/10/15 03:34:53;;;;;;;;;;;8.30;99.90;;;;;;8429093;28;19953;-71
2023/10/15 03:38:58;;;;;;;;;;;8.30;99.90;;;;;;8429218;28;19931;-71
2023/10/15 03:43:15;;;;;;;;;;;8.40;99.90;;;;;;8410073;28;19970;-70
2023/10/15 03:47:22;;;;;;;;;;;8.30;99.90;;;;;;8429151;28;19964;-71
2023/10/15 03:51:23;;;;;;;;;;;8.40;99.90;;;;;;8428650;28;19971;-71
2023/10/15 03:55:25;;;;;;;;;;;8.40;99.90;;;;;;8427831;28;19928;-71
2023/10/15 03:59:27;;;;;;;;;;;8.40;99.90;;;;;;8427826;28;20006;-71
2023/10/15 04:03:28;;;;;;;;;;;8.40;99.90;;;;;;8428037;28;20252;-71
2023/10/15 04:07:38;;;;;;;;;;;8.40;99.90;;;;;;8404121;28;20342;-71
2023/10/15 04:11:43;;;;;;;;;;;8.30;99.90;;;;;;8416507;28;19924;-71
2023/10/15 04:15:44;;;;;;;;;;;8.30;99.90;;;;;;8408775;28;19969;-71
2023/10/15 04:19:46;;;;;;;;;;;8.20;99.90;;;;;;8410515;28;20260;-71
2023/10/15 04:23:53;;;;;;;;;;;8.10;99.90;;;;;;8426387;28;19924;-71
2023/10/15 04:27:54;;;;;;;;;;;8.10;99.90;;;;;;8409910;28;20268;-71
2023/10/15 04:32:09;;;;;;;;;;;8.00;99.90;;;;;;8428217;28;20019;-70
2023/10/15 04:36:11;;;;;;;;;;;8.10;99.90;;;;;;8426274;28;20339;-71
2023/10/15 04:40:16;;;;;;;;;;;8.20;99.90;;;;;;8408713;28;20318;-71
2023/10/15 04:44:31;;;;;;;;;;;8.20;99.90;;;;;;8425657;28;19977;-71
2023/10/15 04:48:36;;;;;;;;;;;8.20;99.90;;;;;;8409127;28;19955;-71
2023/10/15 04:52:38;;;;;;;;;;;8.20;99.90;;;;;;8427067;28;19924;-71
2023/10/15 04:56:39;;;;;;;;;;;8.20;99.90;;;;;;8426399;28;19924;-71
2023/10/15 05:00:41;;;;;;;;;;;8.10;99.90;;;;;;8425988;28;19939;-71
2023/10/15 05:04:43;;;;;;;;;;;8.00;99.90;;;;;;8425936;28;19924;-71
2023/10/15 05:08:47;;;;;;;;;;;7.80;99.90;;;;;;8416178;28;19924;-71
2023/10/15 05:12:51;;;;;;;;;;;7.70;99.90;;;;;;8421141;28;19931;-71
2023/10/15 05:16:53;;;;;;;;;;;7.70;99.90;;;;;;8407765;28;19924;-71
2023/10/15 05:36:04;;;;;;;;;;;7.80;99.90;;;;;;8424268;28;20461;-70
2023/10/15 05:45:09;;;;;;;;;;;7.70;99.90;;;;;;8423839;28;19923;-70
2023/10/15 05:49:11;;;;;;;;;;;7.60;99.90;;;;;;8425543;28;19924;-71
2023/10/15 05:53:13;;;;;;;;;;;7.60;99.90;;;;;;8424174;28;19985;-70
2023/10/15 05:57:15;;;;;;;;;;;7.60;99.90;;;;;;8424975;28;20379;-70
2023/10/15 06:01:16;;;;;;;;;;;7.70;99.90;;;;;;8424081;28;19924;-72
2023/10/15 06:05:18;;;;;;;;;;;7.70;99.90;;;;;;8405922;28;19951;-71
2023/10/15 06:09:20;;;;;;;;;;;7.60;99.90;;;;;;8417750;28;19924;-71
2023/10/15 06:13:21;;;;;;;;;;;7.50;99.90;;;;;;8405477;28;19932;-71
2023/10/15 06:17:23;;;;;;;;;;;7.50;99.90;;;;;;8425024;28;19924;-71
2023/10/15 06:21:25;;;;;;;;;;;7.50;99.90;;;;;;8406862;28;19924;-71
2023/10/15 06:25:26;;;;;;;;;;;7.50;99.90;;;;;;8423706;28;19924;-71
2023/10/15 06:29:28;;;;;;;;;;;7.60;99.90;;;;;;8405852;28;19924;-71
2023/10/15 06:33:30;;;;;;;;;;;7.60;99.90;;;;;;8423660;28;19931;-71
2023/10/15 06:37:32;;;;;;;;;;;7.70;99.90;;;;;;8424534;28;19975;-71
2023/10/15 06:41:36;;;;;;;;;;;7.70;99.90;;;;;;8424884;28;19928;-71
2023/10/15 06:45:37;;;;;;;;;;;7.70;99.90;;;;;;8423138;28;19924;-71
2023/10/15 06:49:39;;;;;;;;;;;7.80;99.90;;;;;;8424903;28;19924;-71
2023/10/15 06:53:41;;;;;;;;;;;7.80;99.90;;;;;;8423406;28;19932;-71
2023/10/15 06:57:42;;;;;;;;;;;7.80;99.90;;;;;;8424851;28;19924;-71
2023/10/15 07:01:44;;;;;;;;;;;7.90;99.90;;;;;;8424111;28;19935;-71
2023/10/15 07:05:45;;;;;;;;;;;7.90;99.90;;;;;;8427556;28;19939;-71
2023/10/15 07:09:47;;;;;;;;;;;7.90;99.90;;;;;;8416683;28;19967;-71
2023/10/15 07:13:49;;;;;;;;;;;8.00;99.90;;;;;;8426506;28;20287;-71
2023/10/15 07:17:51;;;;;;;;;;;8.00;99.90;;;;;;8430747;28;19966;-71
2023/10/15 07:21:52;;;;;;;;;;;8.10;99.90;;;;;;8430923;28;19931;-71
2023/10/15 07:25:54;;;;;;;;;;;8.10;99.90;;;;;;8410461;28;19924;-71
2023/10/15 07:29:56;;;;;;;;;;;8.20;99.90;;;;;;8429100;28;19924;-71
2023/10/15 07:34:00;;;;;;;;;;;8.10;99.90;;;;;;8428571;28;19925;-71
2023/10/15 07:38:04;;;;;;;;;;;8.10;99.90;;;;;;8422891;28;19924;-71
2023/10/15 07:42:06;;;;;;;;;;;8.10;99.90;;;;;;8430013;28;19928;-71
2023/10/15 07:46:08;;;;;;;;;;;8.20;99.90;;;;;;8427027;28;19924;-71
2023/10/15 07:50:13;;;;;;;;;;;8.20;99.90;;;;;;8429241;28;19972;-71
2023/10/15 07:54:17;;;;;;;;;;;8.30;99.90;;;;;;8427746;28;19924;-71
2023/10/15 07:58:21;;;;;;;;;;;8.50;99.90;;;;;;8410546;28;20371;-71
2023/10/15 08:02:23;;;;;;;;;;;8.70;99.90;;;;;;8428646;28;20424;-71
2023/10/15 08:06:25;;;;;;;;;;;8.80;99.90;;;;;;8410228;28;19928;-70
2023/10/15 08:10:32;;;;;;;;;;;8.80;99.90;;;;;;8411347;28;19981;-71
2023/10/15 08:14:34;;;;;;;;;;;8.80;99.90;;;;;;8426222;28;19993;-70
2023/10/15 08:18:36;;;;;;;;;;;8.70;99.90;;;;;;8410964;28;19928;-71
2023/10/15 08:22:40;;;;;;;;;;;8.60;99.90;;;;;;8427463;28;19924;-71
2023/10/15 08:26:42;;;;;;;;;;;8.60;99.90;;;;;;8427434;28;19924;-71
2023/10/15 08:30:45;;;;;;;;;;;8.60;99.90;;;;;;8426924;28;19931;-71
2023/10/15 08:34:47;;;;;;;;;;;8.60;99.90;;;;;;8408500;28;19924;-71
2023/10/15 08:38:49;;;;;;;;;;;8.70;99.90;;;;;;8427521;28;20045;-71
2023/10/15 08:42:56;;;;;;;;;;;8.70;99.90;;;;;;8426583;28;19951;-71
2023/10/15 08:47:00;;;;;;;;;;;8.70;99.90;;;;;;8427241;28;19924;-71
2023/10/15 08:51:03;;;;;;;;;;;8.70;99.90;;;;;;8426510;28;19931;-71
2023/10/15 08:55:06;;;;;;;;;;;8.80;99.90;;;;;;8407735;28;20375;-71
2023/10/15 08:59:09;;;;;;;;;;;8.80;99.90;;;;;;8407671;28;20391;-71
2023/10/15 09:03:14;;;;;;;;;;;8.80;99.90;;;;;;8407939;28;19924;-71
2023/10/15 09:07:18;;;;;;;;;;;8.80;99.90;;;;;;8404293;28;20185;-71
2023/10/15 09:11:20;;;;;;;;;;;9.00;99.90;;;;;;8388665;28;20363;-71
2023/10/15 09:15:28;;;;;;;;;;;9.30;99.90;;;;;;8384758;28;19928;-71
2023/10/15 09:19:31;;;;;;;;;;;9.40;99.90;;;;;;8367152;28;19932;-70
2023/10/15 09:23:37;;;;;;;;;;;9.30;99.90;;;;;;8355673;28;19928;-71
2023/10/15 09:27:44;;;;;;;;;;;9.20;99.90;;;;;;8357844;28;20078;-71
2023/10/15 09:31:47;;;;;;;;;;;9.10;99.90;;;;;;8353541;28;19932;-71
2023/10/15 09:35:49;;;;;;;;;;;8.90;99.90;;;;;;8355524;28;19940;-70
2023/10/15 09:39:52;;;;;;;;;;;8.90;99.90;;;;;;8357554;28;19933;-70
2023/10/15 09:43:54;;;;;;;;;;;8.90;99.90;;;;;;8355072;28;19924;-71
2023/10/15 09:47:57;;;;;;;;;;;9.00;99.90;;;;;;8355195;28;20018;-71
2023/10/15 09:52:01;;;;;;;;;;;9.00;99.90;;;;;;8359603;28;19925;-71
2023/10/15 09:56:07;;;;;;;;;;;9.20;99.90;;;;;;8350463;28;19928;-71
2023/10/15 10:00:14;;;;;;;;;;;9.40;99.90;;;;;;8354502;28;23117;-70
2023/10/15 10:04:42;;;;;;;;;;;9.70;99.90;;;;;;8354925;28;20388;-71
2023/10/15 10:08:52;;;;;;;;;;;10.00;99.90;;;;;;8368269;28;19932;-70
2023/10/15 10:13:02;;;;;;;;;;;10.30;99.90;;;;;;8406097;28;20390;-71
2023/10/15 10:17:05;;;;;;;;;;;10.70;99.90;;;;;;8385130;28;19925;-71
2023/10/15 10:21:11;;;;;;;;;;;11.20;99.90;;;;;;8386231;28;19932;-71
2023/10/15 10:25:30;;;;;;;;;;;11.80;99.90;;;;;;8383176;28;19939;-71
2023/10/15 10:29:34;;;;;;;;;;;12.10;99.90;;;;;;8389779;28;19997;-71
2023/10/15 10:33:44;;;;;;;;;;;12.10;99.90;;;;;;8388362;28;20295;-71
2023/10/15 10:38:02;;;;;;;;;;;12.30;99.90;;;;;;8389529;28;19924;-71
2023/10/15 10:42:04;;;;;;;;;;;12.70;99.90;;;;;;8391998;28;19932;-71
2023/10/15 10:46:09;;;;;;;;;;;12.80;99.90;;;;;;8387119;28;19968;-71
2023/10/15 10:50:10;;;;;;;;;;;12.70;99.90;;;;;;8393990;28;20810;-71
2023/10/15 10:54:15;;;;;;;;;;;12.50;99.90;;;;;;8399030;28;19931;-71
2023/10/15 10:58:24;;;;;;;;;;;12.70;99.90;;;;;;8396936;28;19958;-70
2023/10/15 11:02:25;;;;;;;;;;;13.10;99.90;;;;;;8394100;28;19932;-71
2023/10/15 11:06:27;;;;;;;;;;;13.50;99.90;;;;;;8391316;28;19931;-70
2023/10/15 11:10:32;;;;;;;;;;;13.20;99.90;;;;;;8390336;28;20277;-71
2023/10/15 11:14:35;;;;;;;;;;;12.50;99.90;;;;;;8391706;28;19928;-71
2023/10/15 11:18:37;;;;;;;;;;;11.60;99.90;;;;;;8394068;28;19972;-71
2023/10/15 11:22:39;;;;;;;;;;;10.90;99.90;;;;;;8390480;28;20019;-71
2023/10/15 11:26:44;;;;;;;;;;;10.60;99.90;;;;;;8390420;28;19924;-71
2023/10/15 11:30:46;;;;;;;;;;;10.40;99.90;;;;;;8390420;28;20054;-70
2023/10/15 11:34:48;;;;;;;;;;;10.30;99.90;;;;;;8386615;28;19946;-70
2023/10/15 11:38:51;;;;;;;;;;;10.50;99.90;;;;;;8392871;28;19947;-71
2023/10/15 11:42:54;;;;;;;;;;;10.90;99.90;;;;;;8388165;28;19928;-71
2023/10/15 11:46:56;;;;;;;;;;;11.20;99.90;;;;;;8394147;28;19951;-71
2023/10/15 11:50:58;;;;;;;;;;;11.60;99.90;;;;;;8389617;28;19925;-71
2023/10/15 11:55:01;;;;;;;;;;;11.70;99.90;;;;;;8386360;28;19932;-70
2023/10/15 11:59:03;;;;;;;;;;;11.70;99.90;;;;;;8389046;28;19942;-70
2023/10/15 12:03:09;;;;;;;;;;;11.70;99.90;;;;;;8384923;28;19928;-71
2023/10/15 12:07:18;;;;;;;;;;;11.60;99.90;;;;;;8391959;28;19942;-70
2023/10/15 12:11:19;;;;;;;;;;;11.50;99.90;;;;;;8372959;28;19963;-71
2023/10/15 12:15:21;;;;;;;;;;;11.60;99.90;;;;;;8392906;28;20019;-70
2023/10/15 12:19:23;;;;;;;;;;;11.60;99.90;;;;;;8395698;28;19967;-70
2023/10/15 12:23:27;;;;;;;;;;;11.70;99.90;;;;;;8383426;28;19925;-71
2023/10/15 12:27:28;;;;;;;;;;;11.60;99.90;;;;;;8393753;28;20344;-71
2023/10/15 12:31:30;;;;;;;;;;;11.60;99.90;;;;;;8401583;28;19924;-70
2023/10/15 12:35:32;;;;;;;;;;;11.60;99.90;;;;;;8396033;28;20354;-71
2023/10/15 12:39:34;;;;;;;;;;;11.80;99.90;;;;;;8390628;28;20038;-71
2023/10/15 12:43:37;;;;;;;;;;;11.80;99.90;;;;;;8394354;28;19928;-71
2023/10/15 12:47:39;;;;;;;;;;;11.70;99.90;;;;;;8402172;28;19932;-71
2023/10/15 12:51:41;;;;;;;;;;;11.60;99.90;;;;;;8387369;28;19928;-71
2023/10/15 12:55:43;;;;;;;;;;;11.50;99.90;;;;;;8389643;28;19924;-71
2023/10/15 12:59:44;;;;;;;;;;;11.40;99.90;;;;;;8383168;28;19924;-70
2023/10/15 13:03:49;;;;;;;;;;;11.30;99.90;;;;;;8388880;28;20019;-71
2023/10/15 13:07:52;;;;;;;;;;;11.30;99.90;;;;;;8371918;28;19948;-71
2023/10/15 13:11:54;;;;;;;;;;;11.30;99.90;;;;;;8392325;28;20310;-70
2023/10/15 13:15:56;;;;;;;;;;;11.40;99.90;;;;;;8392760;28;19985;-70
2023/10/15 13:19:57;;;;;;;;;;;11.60;99.90;;;;;;8386046;28;19924;-71
2023/10/15 13:23:59;;;;;;;;;;;11.60;99.90;;;;;;8400567;28;20011;-70
2023/10/15 13:28:01;;;;;;;;;;;11.60;99.90;;;;;;8391722;28;19961;-73
2023/10/15 13:32:03;;;;;;;;;;;11.80;99.90;;;;;;8400058;28;20300;-71
2023/10/15 13:36:05;;;;;;;;;;;11.90;99.90;;;;;;8388202;28;19924;-70
2023/10/15 13:40:09;;;;;;;;;;;12.00;99.90;;;;;;8379052;28;19932;-70
2023/10/15 13:44:10;;;;;;;;;;;12.10;99.90;;;;;;8386735;28;19970;-70
2023/10/15 13:48:12;;;;;;;;;;;12.10;99.90;;;;;;8386997;28;19933;-71
2023/10/15 13:52:14;;;;;;;;;;;12.00;99.90;;;;;;8386169;28;20373;-70
2023/10/15 13:56:16;;;;;;;;;;;12.00;99.90;;;;;;8372917;28;19925;-70
2023/10/15 14:00:19;;;;;;;;;;;11.80;99.90;;;;;;8389464;28;19932;-70
2023/10/15 14:04:21;;;;;;;;;;;11.60;99.90;;;;;;8389554;28;19928;-70
2023/10/15 14:08:23;;;;;;;;;;;11.40;99.90;;;;;;8383621;28;19924;-70
2023/10/15 14:12:25;;;;;;;;;;;11.60;99.90;;;;;;8383178;28;20015;-71
2023/10/15 14:16:27;;;;;;;;;;;11.90;99.90;;;;;;8386362;28;19924;-70
2023/10/15 14:20:28;;;;;;;;;;;12.20;99.90;;;;;;8406928;28;19939;-71
2023/10/15 14:24:30;;;;;;;;;;;12.60;99.90;;;;;;8389116;28;19928;-70
2023/10/15 14:28:32;;;;;;;;;;;12.80;99.90;;;;;;8389306;28;19929;-70
2023/10/15 14:32:34;;;;;;;;;;;12.80;99.90;;;;;;8391769;28;19932;-70
2023/10/15 14:36:39;;;;;;;;;;;12.90;99.90;;;;;;8382282;28;19924;-70
2023/10/15 14:40:42;;;;;;;;;;;12.80;99.90;;;;;;8394301;28;20359;-71
2023/10/15 14:44:44;;;;;;;;;;;12.70;99.90;;;;;;8385036;28;19931;-70
2023/10/15 14:48:45;;;;;;;;;;;12.60;99.90;;;;;;8389210;28;19928;-71
2023/10/15 14:52:47;;;;;;;;;;;12.50;99.90;;;;;;8385433;28;19928;-70
2023/10/15 14:56:49;;;;;;;;;;;12.40;99.90;;;;;;8387326;28;19940;-71
2023/10/15 15:00:51;;;;;;;;;;;12.20;99.90;;;;;;8398221;28;19924;-70
2023/10/15 15:04:53;;;;;;;;;;;12.10;99.90;;;;;;8388585;28;19931;-70
2023/10/15 15:08:54;;;;;;;;;;;12.00;99.90;;;;;;8386580;28;19973;-71
2023/10/15 15:12:56;;;;;;;;;;;11.80;99.90;;;;;;8384783;28;19989;-71
2023/10/15 15:16:58;;;;;;;;;;;11.70;99.90;;;;;;8387240;28;19928;-71
2023/10/15 15:21:01;;;;;;;;;;;11.70;99.90;;;;;;8392749;28;19939;-70
2023/10/15 15:25:04;;;;;;;;;;;11.80;99.90;;;;;;8385280;28;19977;-70
2023/10/15 15:29:06;;;;;;;;;;;11.90;99.90;;;;;;8385597;28;19935;-70
2023/10/15 15:33:11;;;;;;;;;;;12.00;99.90;;;;;;8396704;28;19974;-70
2023/10/15 15:37:13;;;;;;;;;;;12.10;99.90;;;;;;8410479;28;19931;-70
2023/10/15 15:41:14;;;;;;;;;;;12.00;99.90;;;;;;8403982;28;19932;-70
2023/10/15 15:45:16;;;;;;;;;;;11.90;99.90;;;;;;8397736;28;19927;-71
2023/10/15 15:49:18;;;;;;;;;;;11.70;99.90;;;;;;8392958;28;19929;-70
2023/10/15 15:53:22;;;;;;;;;;;11.80;99.90;;;;;;8396683;28;19924;-70
2023/10/15 15:57:24;;;;;;;;;;;11.80;99.90;;;;;;8388256;28;19959;-71
2023/10/15 16:01:26;;;;;;;;;;;11.80;99.90;;;;;;8388980;28;19925;-70
2023/10/15 16:05:31;;;;;;;;;;;11.80;99.90;;;;;;8405754;28;19932;-71
2023/10/15 16:09:34;;;;;;;;;;;11.70;99.90;;;;;;8394438;28;19924;-70
2023/10/15 16:13:36;;;;;;;;;;;11.70;99.90;;;;;;8393432;28;19940;-71
2023/10/15 16:17:37;;;;;;;;;;;11.50;99.90;;;;;;8392347;28;20406;-71
2023/10/15 16:21:39;;;;;;;;;;;11.40;99.90;;;;;;8386999;28;19938;-70
2023/10/15 16:25:41;;;;;;;;;;;11.30;99.90;;;;;;8404296;28;19932;-70
2023/10/15 16:29:43;;;;;;;;;;;11.20;99.90;;;;;;8391473;28;20429;-70
2023/10/15 16:33:44;;;;;;;;;;;11.20;99.90;;;;;;8401024;28;19924;-70
2023/10/15 16:37:47;;;;;;;;;;;11.10;99.90;;;;;;8404900;28;19924;-70
2023/10/15 16:41:49;;;;;;;;;;;11.10;99.90;;;;;;8395478;28;19928;-70
2023/10/15 16:45:50;;;;;;;;;;;11.00;99.90;;;;;;8400168;28;19924;-70
2023/10/15 16:49:52;;;;;;;;;;;11.00;99.90;;;;;;8396334;28;19928;-70
2023/10/15 16:53:54;;;;;;;;;;;10.90;99.90;;;;;;8381321;28;19998;-70
2023/10/15 16:57:56;;;;;;;;;;;10.80;99.90;;;;;;8395380;28;19932;-70
2023/10/15 17:01:57;;;;;;;;;;;10.70;99.90;;;;;;8392354;28;19928;-70
2023/10/15 17:05:59;;;;;;;;;;;10.60;99.90;;;;;;8394742;28;19929;-70
2023/10/15 17:10:01;;;;;;;;;;;10.60;99.90;;;;;;8393892;28;19932;-70
2023/10/15 17:14:03;;;;;;;;;;;10.50;99.90;;;;;;8402433;28;20334;-70
2023/10/15 17:18:06;;;;;;;;;;;10.40;99.90;;;;;;8396322;28;19986;-70
2023/10/15 17:22:07;;;;;;;;;;;10.30;99.90;;;;;;8400487;28;20019;-70
2023/10/15 17:26:10;;;;;;;;;;;10.10;99.90;;;;;;8384964;28;19924;-71
2023/10/15 17:30:11;;;;;;;;;;;10.00;99.90;;;;;;8390293;28;20379;-70
2023/10/15 17:34:28;;;;;;;;;;;9.90;99.90;;;;;;8383103;28;19924;-70
2023/10/15 17:38:30;;;;;;;;;;;9.90;99.90;;;;;;8386714;28;19932;-70
2023/10/15 17:42:34;;;;;;;;;;;9.90;99.90;;;;;;8382651;28;19983;-70
2023/10/15 17:46:36;;;;;;;;;;;9.90;99.90;;;;;;8380697;28;19970;-70
2023/10/15 17:50:37;;;;;;;;;;;10.00;99.90;;;;;;8410912;28;20541;-70
2023/10/15 17:54:39;;;;;;;;;;;10.00;99.90;;;;;;8381951;28;19932;-70
2023/10/15 17:58:41;;;;;;;;;;;10.00;99.90;;;;;;8389552;28;20359;-70
2023/10/15 18:02:43;;;;;;;;;;;10.00;99.90;;;;;;8396098;28;19925;-71
2023/10/15 18:06:45;;;;;;;;;;;9.90;99.90;;;;;;8391318;28;19924;-71
2023/10/15 18:10:47;;;;;;;;;;;9.90;99.90;;;;;;8393332;28;19965;-71
2023/10/15 18:14:49;;;;;;;;;;;9.90;99.90;;;;;;8403600;28;19924;-70
2023/10/15 18:18:54;;;;;;;;;;;9.80;99.90;;;;;;8388859;28;19928;-71
2023/10/15 18:22:56;;;;;;;;;;;9.80;99.90;;;;;;8400857;28;20220;-71
2023/10/15 18:26:59;;;;;;;;;;;9.80;99.90;;;;;;8389264;28;19928;-70
2023/10/15 18:31:07;;;;;;;;;;;9.70;99.90;;;;;;8408690;28;20282;-71
2023/10/15 18:35:14;;;;;;;;;;;9.60;99.90;;;;;;8378154;28;20359;-71
2023/10/15 18:39:18;;;;;;;;;;;9.60;99.90;;;;;;8388234;28;19932;-71
2023/10/15 18:43:21;;;;;;;;;;;9.50;99.90;;;;;;8383381;28;20326;-70
2023/10/15 18:47:24;;;;;;;;;;;9.50;99.90;;;;;;8388533;28;19929;-71
2023/10/15 18:51:25;;;;;;;;;;;9.50;99.90;;;;;;8386880;28;19951;-70
2023/10/15 18:55:30;;;;;;;;;;;9.40;99.90;;;;;;8398573;28;20225;-71
2023/10/15 18:59:32;;;;;;;;;;;9.40;99.90;;;;;;8385950;28;20346;-71
2023/10/15 19:03:33;;;;;;;;;;;9.30;99.90;;;;;;8401026;27;20019;-70
2023/10/15 19:07:35;;;;;;;;;;;9.30;99.90;;;;;;8394484;28;20348;-71
2023/10/15 19:11:37;;;;;;;;;;;9.30;99.90;;;;;;8395187;28;20360;-71
2023/10/15 19:15:41;;;;;;;;;;;9.20;99.90;;;;;;8394876;28;20358;-71
2023/10/15 19:19:43;;;;;;;;;;;9.10;99.90;;;;;;8381497;28;19925;-70
2023/10/15 19:23:44;;;;;;;;;;;9.00;99.90;;;;;;8391952;28;19928;-71
2023/10/15 19:27:46;;;;;;;;;;;9.00;99.90;;;;;;8384747;28;20240;-71
2023/10/15 19:31:48;;;;;;;;;;;8.90;99.90;;;;;;8374593;28;19928;-71
2023/10/15 19:35:49;;;;;;;;;;;8.90;99.90;;;;;;8393368;28;19968;-70
2023/10/15 19:39:51;;;;;;;;;;;8.80;99.90;;;;;;8392529;28;19928;-70
2023/10/15 19:43:53;;;;;;;;;;;8.70;99.90;;;;;;8376192;28;19939;-70
2023/10/15 19:47:55;;;;;;;;;;;8.70;99.90;;;;;;8392140;28;19928;-71
2023/10/15 19:51:57;;;;;;;;;;;8.70;99.90;;;;;;8392124;28;20330;-71
2023/10/15 19:56:00;;;;;;;;;;;8.60;99.90;;;;;;8405634;28;19929;-71
2023/10/15 20:00:15;;;;;;;;;;;8.50;99.90;;;;;;8392136;28;20382;-71
2023/10/15 20:04:16;;;;;;;;;;;8.50;99.90;;;;;;8375232;28;19931;-71
2023/10/15 20:08:18;;;;;;;;;;;8.40;99.90;;;;;;8392810;28;20271;-70
2023/10/15 20:12:22;;;;;;;;;;;8.40;99.90;;;;;;8388799;28;19959;-70
2023/10/15 20:16:23;;;;;;;;;;;8.30;99.90;;;;;;8392380;28;19943;-70
2023/10/15 20:20:25;;;;;;;;;;;8.30;99.90;;;;;;8405997;28;20060;-70
2023/10/15 20:24:27;;;;;;;;;;;8.20;99.90;;;;;;8392516;28;19935;-70
2023/10/15 20:28:29;;;;;;;;;;;8.00;99.90;;;;;;8393964;28;19974;-71
2023/10/15 20:32:31;;;;;;;;;;;8.00;99.90;;;;;;8386370;28;19943;-70
2023/10/15 20:36:48;;;;;;;;;;;8.00;99.90;;;;;;8389379;28;19928;-70
2023/10/15 20:40:51;;;;;;;;;;;8.00;99.90;;;;;;8388449;28;19928;-70
2023/10/15 20:44:54;;;;;;;;;;;8.00;99.90;;;;;;8389949;28;19928;-70
2023/10/15 20:48:56;;;;;;;;;;;8.10;99.90;;;;;;8384398;28;19928;-70
2023/10/15 20:53:00;;;;;;;;;;;8.10;99.90;;;;;;8389159;28;19936;-71
2023/10/15 20:57:02;;;;;;;;;;;8.20;99.90;;;;;;8386209;28;19961;-70
2023/10/15 21:01:03;;;;;;;;;;;8.20;99.90;;;;;;8391656;28;20308;-71
2023/10/15 21:05:05;;;;;;;;;;;8.20;99.90;;;;;;8414049;28;19974;-70
2023/10/15 21:09:07;;;;;;;;;;;8.10;99.90;;;;;;8407859;28;19924;-70
2023/10/15 21:13:09;;;;;;;;;;;8.10;99.90;;;;;;8412634;28;20292;-71
2023/10/15 21:17:11;;;;;;;;;;;8.10;99.90;;;;;;8405979;28;19928;-71
2023/10/15 21:21:13;;;;;;;;;;;8.10;99.90;;;;;;8408244;28;19924;-70
2023/10/15 21:25:15;;;;;;;;;;;8.10;99.90;;;;;;8414079;28;20011;-70
2023/10/15 21:29:20;;;;;;;;;;;8.10;99.90;;;;;;8385984;28;20023;-71
2023/10/15 21:33:21;;;;;;;;;;;8.10;99.90;;;;;;8391572;28;19928;-70
2023/10/15 21:37:24;;;;;;;;;;;8.00;99.90;;;;;;8409871;28;19924;-71
2023/10/15 21:41:26;;;;;;;;;;;8.00;99.90;;;;;;8397386;28;20332;-70
2023/10/15 21:45:28;;;;;;;;;;;8.00;99.90;;;;;;8408639;28;20421;-70
2023/10/15 21:49:29;;;;;;;;;;;8.00;99.90;;;;;;8407933;28;19928;-70
2023/10/15 21:53:31;;;;;;;;;;;8.10;99.90;;;;;;8420293;28;20356;-71
2023/10/15 21:57:33;;;;;;;;;;;8.10;99.90;;;;;;8404691;28;20426;-70
2023/10/15 22:01:34;;;;;;;;;;;8.00;99.90;;;;;;8401072;28;19936;-70
2023/10/15 22:05:37;;;;;;;;;;;8.00;99.90;;;;;;8400891;28;20311;-71
2023/10/15 22:09:39;;;;;;;;;;;8.10;99.90;;;;;;8409384;28;20086;-71
2023/10/15 22:13:40;;;;;;;;;;;8.20;99.90;;;;;;8409323;28;19963;-70
2023/10/15 22:17:47;;;;;;;;;;;8.30;99.90;;;;;;8412694;28;19928;-70
2023/10/15 22:21:49;;;;;;;;;;;8.30;99.90;;;;;;8404297;28;19924;-70
2023/10/15 22:25:51;;;;;;;;;;;8.30;99.90;;;;;;8390294;28;19932;-70
2023/10/15 22:29:54;;;;;;;;;;;8.30;99.90;;;;;;8412164;28;19928;-70
2023/10/15 22:33:55;;;;;;;;;;;8.30;99.90;;;;;;8408339;28;19931;-71
2023/10/15 22:37:57;;;;;;;;;;;8.40;99.90;;;;;;8413426;28;19939;-70
2023/10/15 22:42:02;;;;;;;;;;;8.40;99.90;;;;;;8410531;28;19924;-70
2023/10/15 22:46:04;;;;;;;;;;;8.40;99.90;;;;;;8395236;28;20376;-70
2023/10/15 22:50:09;;;;;;;;;;;8.40;99.90;;;;;;8409585;28;19925;-70
2023/10/15 22:54:11;;;;;;;;;;;8.40;99.90;;;;;;8393517;28;19982;-70
2023/10/15 22:58:13;;;;;;;;;;;8.40;99.90;;;;;;8396723;28;19950;-71
2023/10/15 23:02:14;;;;;;;;;;;8.40;99.90;;;;;;8395486;28;19924;-70
2023/10/15 23:06:16;;;;;;;;;;;8.40;99.90;;;;;;8389802;28;19951;-70
2023/10/15 23:10:19;;;;;;;;;;;8.50;99.90;;;;;;8406214;28;19987;-70
2023/10/15 23:14:21;;;;;;;;;;;8.50;99.90;;;;;;8394738;28;19927;-70
2023/10/15 23:18:22;;;;;;;;;;;8.50;99.90;;;;;;8405932;28;19924;-70
2023/10/15 23:22:25;;;;;;;;;;;8.50;99.90;;;;;;8409755;28;19925;-70
2023/10/15 23:26:26;;;;;;;;;;;8.40;99.90;;;;;;8413512;28;20345;-71
2023/10/15 23:30:28;;;;;;;;;;;8.40;99.90;;;;;;8410892;28;20334;-70
2023/10/15 23:34:31;;;;;;;;;;;8.30;99.90;;;;;;8410642;28;19935;-70
2023/10/15 23:38:33;;;;;;;;;;;8.30;99.90;;;;;;8410528;28;19924;-70
2023/10/15 23:42:35;;;;;;;;;;;8.20;99.90;;;;;;8381344;28;19928;-70
2023/10/15 23:46:39;;;;;;;;;;;8.20;99.90;;;;;;8413786;28;19925;-70
2023/10/15 23:50:46;;;;;;;;;;;8.20;99.90;;;;;;8420460;28;19935;-71
2023/10/15 23:54:52;;;;;;;;;;;8.10;99.90;;;;;;8413177;28;20038;-71
2023/10/15 23:58:56;;;;;;;;;;;8.10;99.90;;;;;;8392605;28;19946;-70
